Time;durP1;ratioP1;P1;durP2;ratioP2;P2;SDS_P1;SDS_P2;PMS_P1;PMS_P2;Temp;Humidity;BMP_temperature;BMP_pressure;BME280_temperature;BME280_humidity;BME280_pressure;Samples;Min_cycle;Max_cycle;Signal;HPM_P1;HPM_P2
2022/03/11 00:01:03;;;;;;;11.18;4.43;;;;;;;;;;5014587;28;20026;-76
2022/03/11 00:03:28;;;;;;;6.82;3.13;;;;;;;;;;5012864;28;20022;-76
2022/03/11 00:05:54;;;;;;;9.02;3.35;;;;;;;;;;5014835;28;20053;-76
2022/03/11 00:08:19;;;;;;;8.25;3.28;;;;;;;;;;5013481;28;20076;-75
2022/03/11 00:10:44;;;;;;;11.88;4.10;;;;;;;;;;5014725;28;20053;-76
2022/03/11 00:13:09;;;;;;;10.35;4.25;;;;;;;;;;5014768;28;20547;-76
2022/03/11 00:15:35;;;;;;;10.30;3.42;;;;;;;;;;5014838;28;20034;-77
2022/03/11 00:18:00;;;;;;;8.77;3.65;;;;;;;;;;5014617;28;20426;-76
2022/03/11 00:20:26;;;;;;;12.43;3.75;;;;;;;;;;5014168;28;20062;-75
2022/03/11 00:22:51;;;;;;;7.45;3.45;;;;;;;;;;5014644;28;20034;-76
2022/03/11 00:25:18;;;;;;;8.85;4.10;;;;;;;;;;5014971;28;20109;-76
2022/03/11 00:27:43;;;;;;;15.60;3.45;;;;;;;;;;5015304;28;20022;-76
2022/03/11 00:30:09;;;;;;;9.38;4.40;;;;;;;;;;5015016;28;20021;-77
2022/03/11 00:32:35;;;;;;;8.85;3.75;;;;;;;;;;5014042;28;20401;-76
2022/03/11 00:35:00;;;;;;;7.00;3.30;;;;;;;;;;5018238;28;20030;-76
2022/03/11 00:37:26;;;;;;;8.40;3.75;;;;;;;;;;5018831;28;20044;-76
2022/03/11 00:39:51;;;;;;;3.30;1.98;;;;;;;;;;5019445;28;20033;-76
2022/03/11 00:42:16;;;;;;;9.63;4.13;;;;;;;;;;5017910;28;20057;-77
2022/03/11 00:44:42;;;;;;;9.40;4.05;;;;;;;;;;5017947;28;20022;-73
2022/03/11 00:47:08;;;;;;;5.90;3.05;;;;;;;;;;5018851;28;20467;-76
2022/03/11 00:49:33;;;;;;;8.65;3.42;;;;;;;;;;5019124;28;20098;-76
2022/03/11 00:51:58;;;;;;;7.88;3.65;;;;;;;;;;5019531;28;20060;-76
2022/03/11 00:54:25;;;;;;;9.95;3.80;;;;;;;;;;5018946;28;20083;-76
2022/03/11 00:56:50;;;;;;;6.35;3.28;;;;;;;;;;5018368;28;20044;-76
2022/03/11 00:59:15;;;;;;;5.72;3.08;;;;;;;;;;5019022;28;20119;-76
2022/03/11 01:01:41;;;;;;;5.53;2.97;;;;;;;;;;5018955;28;20018;-76
2022/03/11 01:04:06;;;;;;;9.38;3.88;;;;;;;;;;5017641;28;20446;-76
2022/03/11 01:06:31;;;;;;;7.28;3.72;;;;;;;;;;5018285;28;20030;-75
2022/03/11 01:08:56;;;;;;;8.40;3.70;;;;;;;;;;5018621;28;20076;-76
2022/03/11 01:11:22;;;;;;;8.07;3.47;;;;;;;;;;5018729;28;20375;-76
2022/03/11 01:13:47;;;;;;;8.80;3.65;;;;;;;;;;5017817;28;20049;-76
2022/03/11 01:16:12;;;;;;;8.02;3.80;;;;;;;;;;5017311;28;20022;-76
2022/03/11 01:18:37;;;;;;;8.07;3.70;;;;;;;;;;5018674;28;20026;-76
2022/03/11 01:21:03;;;;;;;7.60;3.88;;;;;;;;;;5016271;28;20033;-75
2022/03/11 01:23:28;;;;;;;8.95;3.97;;;;;;;;;;5019122;28;20025;-76
2022/03/11 01:25:54;;;;;;;12.80;3.80;;;;;;;;;;5017742;28;20053;-76
2022/03/11 01:28:19;;;;;;;8.93;3.50;;;;;;;;;;5018000;28;20022;-76
2022/03/11 01:30:44;;;;;;;8.55;3.50;;;;;;;;;;5017539;28;20026;-76
2022/03/11 01:33:09;;;;;;;8.00;3.78;;;;;;;;;;5018133;28;20026;-76
2022/03/11 01:35:35;;;;;;;8.07;3.90;;;;;;;;;;5017285;28;20432;-77
2022/03/11 01:38:00;;;;;;;9.05;3.95;;;;;;;;;;5017754;28;20391;-76
2022/03/11 01:40:25;;;;;;;9.00;3.58;;;;;;;;;;5018400;28;20029;-75
2022/03/11 01:42:51;;;;;;;7.20;3.08;;;;;;;;;;5019707;28;20022;-76
2022/03/11 01:45:16;;;;;;;11.50;3.60;;;;;;;;;;5018027;28;20029;-76
2022/03/11 01:47:42;;;;;;;5.25;2.05;;;;;;;;;;5018273;28;20057;-75
2022/03/11 01:50:07;;;;;;;8.75;3.97;;;;;;;;;;5015891;28;20036;-75
2022/03/11 01:52:33;;;;;;;6.97;3.72;;;;;;;;;;5017026;28;20121;-75
2022/03/11 01:54:58;;;;;;;13.25;4.05;;;;;;;;;;5016884;28;20064;-76
2022/03/11 01:57:24;;;;;;;9.82;3.65;;;;;;;;;;5017279;28;20036;-76
2022/03/11 01:59:49;;;;;;;7.35;3.65;;;;;;;;;;5017364;28;20030;-75
2022/03/11 02:02:15;;;;;;;7.80;3.47;;;;;;;;;;5016764;28;20034;-75
2022/03/11 02:04:41;;;;;;;12.57;4.00;;;;;;;;;;5016562;28;20034;-76
2022/03/11 02:07:06;;;;;;;6.00;2.80;;;;;;;;;;5015908;28;20040;-76
2022/03/11 02:09:31;;;;;;;8.60;3.63;;;;;;;;;;5016214;28;20029;-75
2022/03/11 02:11:57;;;;;;;8.60;3.22;;;;;;;;;;5015903;28;20091;-76
2022/03/11 02:14:22;;;;;;;7.63;3.55;;;;;;;;;;5015960;28;20394;-75
2022/03/11 02:16:47;;;;;;;5.72;2.85;;;;;;;;;;5016027;28;20060;-76
2022/03/11 02:19:12;;;;;;;5.65;3.00;;;;;;;;;;5016121;28;20021;-76
2022/03/11 02:21:43;;;;;;;9.32;3.95;;;;;;;;;;5014398;28;20124;-75
2022/03/11 02:24:12;;;;;;;6.32;2.88;;;;;;;;;;5014956;28;20399;-76
2022/03/11 02:26:38;;;;;;;5.90;3.00;;;;;;;;;;5015007;28;20033;-75
2022/03/11 02:29:04;;;;;;;5.57;3.20;;;;;;;;;;5016302;28;20021;-76
2022/03/11 02:31:31;;;;;;;6.03;3.03;;;;;;;;;;5015345;28;20029;-76
2022/03/11 02:33:58;;;;;;;6.45;3.03;;;;;;;;;;5014425;28;20022;-76
2022/03/11 02:36:24;;;;;;;7.28;2.97;;;;;;;;;;5015634;28;20048;-76
2022/03/11 02:38:49;;;;;;;6.60;3.38;;;;;;;;;;5016275;28;20471;-76
2022/03/11 02:41:15;;;;;;;9.77;3.60;;;;;;;;;;5015710;28;20083;-76
2022/03/11 02:43:43;;;;;;;7.93;3.53;;;;;;;;;;5013775;28;20496;-76
2022/03/11 02:46:10;;;;;;;8.18;3.92;;;;;;;;;;5015203;28;20060;-76
2022/03/11 02:48:35;;;;;;;8.50;4.00;;;;;;;;;;5014841;28;20463;-76
2022/03/11 02:51:00;;;;;;;9.80;4.05;;;;;;;;;;5015193;28;20057;-76
2022/03/11 02:53:26;;;;;;;8.00;3.67;;;;;;;;;;5015080;28;20030;-76
2022/03/11 02:55:51;;;;;;;5.18;2.42;;;;;;;;;;5014528;28;20079;-76
2022/03/11 02:58:17;;;;;;;7.90;2.92;;;;;;;;;;5014784;28;20021;-76
2022/03/11 03:00:42;;;;;;;9.23;3.90;;;;;;;;;;5014037;28;20172;-76
2022/03/11 03:03:07;;;;;;;7.05;3.22;;;;;;;;;;5015535;28;20026;-76
2022/03/11 03:05:32;;;;;;;10.00;3.92;;;;;;;;;;5014762;28;20025;-76
2022/03/11 03:07:58;;;;;;;4.70;2.63;;;;;;;;;;5014938;28;20018;-76
2022/03/11 03:10:23;;;;;;;8.95;3.75;;;;;;;;;;5015391;28;20030;-76
2022/03/11 03:12:48;;;;;;;11.30;4.22;;;;;;;;;;5014791;28;20112;-76
2022/03/11 03:15:14;;;;;;;8.35;3.80;;;;;;;;;;5014966;28;20030;-76
2022/03/11 03:17:39;;;;;;;5.32;2.90;;;;;;;;;;5013001;28;20022;-75
2022/03/11 03:20:05;;;;;;;8.90;3.85;;;;;;;;;;5012913;28;20072;-75
2022/03/11 03:22:31;;;;;;;9.60;3.80;;;;;;;;;;5014287;28;20030;-75
2022/03/11 03:24:56;;;;;;;7.95;2.75;;;;;;;;;;5013032;28;20372;-76
2022/03/11 03:27:21;;;;;;;8.55;3.70;;;;;;;;;;5014090;28;20065;-75
2022/03/11 03:29:47;;;;;;;7.57;3.22;;;;;;;;;;5014557;28;20041;-76
2022/03/11 03:32:12;;;;;;;6.25;2.95;;;;;;;;;;5012891;28;20018;-76
2022/03/11 03:34:38;;;;;;;8.88;3.83;;;;;;;;;;5012738;28;20184;-76
2022/03/11 03:37:09;;;;;;;9.77;4.28;;;;;;;;;;5013387;28;20030;-75
2022/03/11 03:39:35;;;;;;;6.70;3.25;;;;;;;;;;5014718;28;20109;-76
2022/03/11 03:42:00;;;;;;;7.70;3.40;;;;;;;;;;5013194;28;20037;-77
2022/03/11 03:44:26;;;;;;;7.85;3.60;;;;;;;;;;5014187;28;20030;-77
2022/03/11 03:46:51;;;;;;;9.95;3.95;;;;;;;;;;5014840;28;20026;-77
2022/03/11 03:49:16;;;;;;;5.05;2.47;;;;;;;;;;5014396;28;20026;-77
2022/03/11 03:51:42;;;;;;;8.77;3.47;;;;;;;;;;5013472;28;20080;-76
2022/03/11 03:54:11;;;;;;;8.45;3.33;;;;;;;;;;5014258;28;20105;-76
2022/03/11 03:56:42;;;;;;;8.18;3.65;;;;;;;;;;5015221;28;20054;-76
2022/03/11 03:59:09;;;;;;;8.48;4.30;;;;;;;;;;5015296;28;20029;-76
2022/03/11 04:01:36;;;;;;;10.30;3.65;;;;;;;;;;5014492;28;20037;-75
2022/03/11 04:04:05;;;;;;;6.65;3.25;;;;;;;;;;5014987;28;20022;-76
2022/03/11 04:06:31;;;;;;;7.43;3.00;;;;;;;;;;5015085;28;20080;-76
2022/03/11 04:08:57;;;;;;;5.60;2.63;;;;;;;;;;5016627;28;20025;-76
2022/03/11 04:11:23;;;;;;;9.05;3.53;;;;;;;;;;5017840;28;20026;-76
2022/03/11 04:13:50;;;;;;;8.38;3.67;;;;;;;;;;5018523;28;20026;-76
2022/03/11 04:16:15;;;;;;;12.75;4.20;;;;;;;;;;5019607;28;20025;-76
2022/03/11 04:18:41;;;;;;;9.75;3.75;;;;;;;;;;5019084;28;20126;-76
2022/03/11 04:21:06;;;;;;;8.52;3.67;;;;;;;;;;5018611;28;20026;-77
2022/03/11 04:23:31;;;;;;;6.55;3.03;;;;;;;;;;5018598;28;20085;-76
2022/03/11 04:25:56;;;;;;;13.63;3.33;;;;;;;;;;5018563;28;20030;-76
2022/03/11 04:28:22;;;;;;;13.10;3.63;;;;;;;;;;5018064;28;20084;-76
2022/03/11 04:30:47;;;;;;;8.43;3.55;;;;;;;;;;5017625;28;20030;-76
2022/03/11 04:33:12;;;;;;;7.05;3.65;;;;;;;;;;5018982;28;20094;-76
2022/03/11 04:35:38;;;;;;;8.98;3.65;;;;;;;;;;5018229;28;20037;-76
2022/03/11 04:38:03;;;;;;;6.13;2.90;;;;;;;;;;5018129;28;20026;-77
2022/03/11 04:40:28;;;;;;;8.35;3.08;;;;;;;;;;5017756;28;20481;-76
2022/03/11 04:42:54;;;;;;;8.52;3.45;;;;;;;;;;5017329;28;20538;-76
2022/03/11 04:45:19;;;;;;;10.50;3.60;;;;;;;;;;5017215;28;20570;-77
2022/03/11 04:47:46;;;;;;;5.55;2.80;;;;;;;;;;5017063;28;20498;-75
2022/03/11 04:50:11;;;;;;;6.85;2.88;;;;;;;;;;5017085;28;20026;-76
2022/03/11 04:52:36;;;;;;;7.30;3.53;;;;;;;;;;5015955;28;20115;-76
2022/03/11 04:55:02;;;;;;;7.13;3.33;;;;;;;;;;5017302;28;20022;-76
2022/03/11 04:57:28;;;;;;;7.10;3.15;;;;;;;;;;5017057;28;20029;-76
2022/03/11 04:59:53;;;;;;;7.57;2.97;;;;;;;;;;5016825;28;20026;-76
2022/03/11 05:02:28;;;;;;;6.22;3.03;;;;;;;;;;5016950;28;20044;-76
2022/03/11 05:04:54;;;;;;;5.00;2.33;;;;;;;;;;5017252;28;20021;-76
2022/03/11 05:07:19;;;;;;;10.35;3.45;;;;;;;;;;5016724;28;20036;-76
2022/03/11 05:09:45;;;;;;;4.45;2.28;;;;;;;;;;5018350;28;20030;-77
2022/03/11 05:12:11;;;;;;;5.90;3.42;;;;;;;;;;5017019;28;20022;-76
2022/03/11 05:14:37;;;;;;;9.45;4.18;;;;;;;;;;5016645;28;20032;-76
2022/03/11 05:17:02;;;;;;;7.78;3.67;;;;;;;;;;5016752;28;20105;-75
2022/03/11 05:19:27;;;;;;;11.45;3.53;;;;;;;;;;5016364;28;20167;-76
2022/03/11 05:21:53;;;;;;;5.63;3.08;;;;;;;;;;5016376;28;20454;-77
2022/03/11 05:24:18;;;;;;;7.90;3.63;;;;;;;;;;5017106;28;20033;-76
2022/03/11 05:26:43;;;;;;;5.85;2.30;;;;;;;;;;5017282;28;20021;-76
2022/03/11 05:29:08;;;;;;;8.55;3.58;;;;;;;;;;5016701;28;20072;-76
2022/03/11 05:31:34;;;;;;;6.45;3.10;;;;;;;;;;5016980;28;20032;-76
2022/03/11 05:33:59;;;;;;;7.75;3.47;;;;;;;;;;5017388;28;20025;-76
2022/03/11 05:36:24;;;;;;;9.05;4.00;;;;;;;;;;5015842;28;20045;-77
2022/03/11 05:38:50;;;;;;;6.68;3.28;;;;;;;;;;5016923;28;20024;-76
2022/03/11 05:41:16;;;;;;;8.00;3.22;;;;;;;;;;5016537;28;20566;-76
2022/03/11 05:43:41;;;;;;;6.18;2.63;;;;;;;;;;5016304;28;20026;-76
2022/03/11 05:46:07;;;;;;;4.82;2.40;;;;;;;;;;5014953;28;20018;-76
2022/03/11 05:48:32;;;;;;;7.97;3.00;;;;;;;;;;5016356;28;20026;-75
2022/03/11 05:50:58;;;;;;;6.72;3.17;;;;;;;;;;5017027;28;20041;-76
2022/03/11 05:53:23;;;;;;;9.15;4.03;;;;;;;;;;5014814;28;20029;-76
2022/03/11 05:55:48;;;;;;;7.18;3.38;;;;;;;;;;5016224;28;20045;-76
2022/03/11 05:58:13;;;;;;;8.95;3.97;;;;;;;;;;5017175;28;20622;-76
2022/03/11 06:00:39;;;;;;;9.90;3.33;;;;;;;;;;5016678;28;20044;-75
2022/03/11 06:03:04;;;;;;;8.68;3.80;;;;;;;;;;5015904;28;20026;-76
2022/03/11 06:05:29;;;;;;;7.43;3.28;;;;;;;;;;5017396;28;20483;-76
2022/03/11 06:07:55;;;;;;;10.00;3.42;;;;;;;;;;5016249;28;20508;-75
2022/03/11 06:10:20;;;;;;;7.15;3.33;;;;;;;;;;5015913;28;20117;-74
2022/03/11 06:12:45;;;;;;;7.57;3.35;;;;;;;;;;5017938;28;20108;-76
2022/03/11 06:15:11;;;;;;;11.00;3.70;;;;;;;;;;5015142;28;20025;-75
2022/03/11 06:17:37;;;;;;;9.25;3.65;;;;;;;;;;5016519;28;20025;-76
2022/03/11 06:20:03;;;;;;;10.65;4.40;;;;;;;;;;5016486;28;20083;-75
2022/03/11 06:22:29;;;;;;;6.95;3.83;;;;;;;;;;5016086;28;20108;-76
2022/03/11 06:24:55;;;;;;;7.30;4.20;;;;;;;;;;5016209;28;20061;-77
2022/03/11 06:27:24;;;;;;;7.20;4.57;;;;;;;;;;5016308;28;20032;-74
2022/03/11 06:29:49;;;;;;;11.30;5.28;;;;;;;;;;5014650;28;20033;-77
2022/03/11 06:32:14;;;;;;;12.90;9.98;;;;;;;;;;5016987;28;20046;-76
2022/03/11 06:34:40;;;;;;;11.70;5.82;;;;;;;;;;5015756;28;20496;-76
2022/03/11 06:37:05;;;;;;;7.18;4.00;;;;;;;;;;5015434;28;20076;-76
2022/03/11 06:39:30;;;;;;;4.32;2.33;;;;;;;;;;5016350;28;20029;-76
2022/03/11 06:41:55;;;;;;;5.63;3.35;;;;;;;;;;5014797;28;20022;-76
2022/03/11 06:44:20;;;;;;;4.70;2.42;;;;;;;;;;5016538;28;20032;-76
2022/03/11 06:46:46;;;;;;;8.63;3.22;;;;;;;;;;5015378;28;20022;-75
2022/03/11 06:49:11;;;;;;;9.98;4.15;;;;;;;;;;5017391;28;20054;-76
2022/03/11 06:51:36;;;;;;;9.20;3.67;;;;;;;;;;5016262;28;20029;-77
2022/03/11 06:54:04;;;;;;;8.27;3.63;;;;;;;;;;5016853;28;20021;-75
2022/03/11 06:56:30;;;;;;;12.50;3.78;;;;;;;;;;5015363;28;20117;-75
2022/03/11 06:58:55;;;;;;;5.13;2.53;;;;;;;;;;5015318;28;20060;-75
2022/03/11 07:01:20;;;;;;;6.65;3.00;;;;;;;;;;5016036;28;20034;-76
2022/03/11 07:03:46;;;;;;;3.92;2.22;;;;;;;;;;5018322;28;20056;-77
2022/03/11 07:06:11;;;;;;;8.73;4.20;;;;;;;;;;5018009;28;20034;-77
2022/03/11 07:08:36;;;;;;;10.90;4.00;;;;;;;;;;5013421;28;20088;-75
2022/03/11 07:11:02;;;;;;;12.48;4.43;;;;;;;;;;5014204;28;20029;-75
2022/03/11 07:13:28;;;;;;;5.03;1.98;;;;;;;;;;5012759;28;20049;-74
2022/03/11 07:15:53;;;;;;;3.30;1.98;;;;;;;;;;5014002;28;20061;-75
2022/03/11 07:18:18;;;;;;;7.82;3.65;;;;;;;;;;5014003;28;20025;-75
2022/03/11 07:20:43;;;;;;;11.45;3.70;;;;;;;;;;5013986;28;20502;-80
2022/03/11 07:23:08;;;;;;;9.57;4.28;;;;;;;;;;5020061;28;20518;-76
2022/03/11 07:25:34;;;;;;;3.95;2.67;;;;;;;;;;5018245;28;20033;-76
2022/03/11 07:27:59;;;;;;;8.50;3.33;;;;;;;;;;5018448;28;20028;-79
2022/03/11 07:30:25;;;;;;;7.40;3.60;;;;;;;;;;5015126;28;20053;-78
2022/03/11 07:32:52;;;;;;;3.03;1.83;;;;;;;;;;5014754;28;20399;-76
2022/03/11 07:35:18;;;;;;;5.05;2.65;;;;;;;;;;5014572;28;20021;-76
2022/03/11 07:37:43;;;;;;;10.32;3.95;;;;;;;;;;5014103;28;20082;-76
2022/03/11 07:40:10;;;;;;;9.27;3.70;;;;;;;;;;5014515;28;20483;-76
2022/03/11 07:42:35;;;;;;;7.07;3.35;;;;;;;;;;5012378;28;20030;-77
2022/03/11 07:45:02;;;;;;;5.60;2.70;;;;;;;;;;5012622;28;20053;-76
2022/03/11 07:47:27;;;;;;;10.95;3.90;;;;;;;;;;5014411;28;20037;-77
2022/03/11 07:49:52;;;;;;;12.00;4.38;;;;;;;;;;5014296;28;20029;-77
2022/03/11 07:52:21;;;;;;;6.13;2.50;;;;;;;;;;5014436;28;20030;-76
2022/03/11 07:54:46;;;;;;;6.32;3.08;;;;;;;;;;5014387;28;20065;-76
2022/03/11 07:57:11;;;;;;;5.60;3.10;;;;;;;;;;5014281;28;20088;-76
2022/03/11 07:59:37;;;;;;;9.20;4.10;;;;;;;;;;5014672;28;20018;-77
2022/03/11 08:02:03;;;;;;;5.10;2.75;;;;;;;;;;5014284;28;20026;-76
2022/03/11 08:04:29;;;;;;;5.18;2.95;;;;;;;;;;5014962;28;20037;-77
2022/03/11 08:06:54;;;;;;;5.78;3.28;;;;;;;;;;5014831;28;20372;-77
2022/03/11 08:09:20;;;;;;;5.32;2.78;;;;;;;;;;5015086;28;20026;-77
2022/03/11 08:11:45;;;;;;;6.35;2.38;;;;;;;;;;5014258;28;20057;-77
2022/03/11 08:14:13;;;;;;;10.82;3.88;;;;;;;;;;5014738;28;20032;-76
2022/03/11 08:16:39;;;;;;;8.38;4.10;;;;;;;;;;5014958;28;20068;-77
2022/03/11 08:19:06;;;;;;;7.78;3.58;;;;;;;;;;5015663;28;20486;-78
2022/03/11 08:21:31;;;;;;;6.53;3.08;;;;;;;;;;5016051;28;20037;-75
2022/03/11 08:23:56;;;;;;;8.20;4.00;;;;;;;;;;5014436;28;20022;-77
2022/03/11 08:26:23;;;;;;;6.63;3.25;;;;;;;;;;5014750;28;20033;-77
2022/03/11 08:28:48;;;;;;;7.82;3.95;;;;;;;;;;5015288;28;20101;-77
2022/03/11 08:31:14;;;;;;;7.20;3.50;;;;;;;;;;5015068;28;20060;-76
2022/03/11 08:33:39;;;;;;;6.75;3.75;;;;;;;;;;5016758;28;20525;-76
2022/03/11 08:36:05;;;;;;;7.43;3.60;;;;;;;;;;5015413;28;20037;-76
2022/03/11 08:38:30;;;;;;;9.55;4.15;;;;;;;;;;5015599;28;20094;-77
2022/03/11 08:40:56;;;;;;;15.95;3.30;;;;;;;;;;5015998;28;20018;-77
2022/03/11 08:43:22;;;;;;;7.38;3.80;;;;;;;;;;5014805;28;20117;-77
2022/03/11 08:45:47;;;;;;;5.57;2.15;;;;;;;;;;5014257;28;20037;-78
2022/03/11 08:48:13;;;;;;;5.15;2.65;;;;;;;;;;5014423;28;20026;-77
2022/03/11 08:50:38;;;;;;;8.48;3.28;;;;;;;;;;5013707;28;20022;-78
2022/03/11 08:53:03;;;;;;;7.22;3.17;;;;;;;;;;5014114;28;20030;-77
2022/03/11 08:55:28;;;;;;;6.38;3.35;;;;;;;;;;5017128;28;20026;-76
2022/03/11 08:57:54;;;;;;;6.40;3.42;;;;;;;;;;5016552;28;20026;-77
2022/03/11 09:00:21;;;;;;;12.80;3.97;;;;;;;;;;5016923;28;20029;-77
2022/03/11 09:02:47;;;;;;;6.55;3.55;;;;;;;;;;5017842;28;20026;-77
2022/03/11 09:05:15;;;;;;;3.67;2.35;;;;;;;;;;5017887;28;20104;-77
2022/03/11 09:07:40;;;;;;;8.63;3.55;;;;;;;;;;5017439;28;20113;-77
2022/03/11 09:10:09;;;;;;;7.20;3.38;;;;;;;;;;5017768;28;20109;-77
2022/03/11 09:12:35;;;;;;;5.00;2.70;;;;;;;;;;5016684;28;20467;-77
2022/03/11 09:15:00;;;;;;;7.90;3.65;;;;;;;;;;5016516;28;20065;-77
2022/03/11 09:17:25;;;;;;;8.40;3.15;;;;;;;;;;5017682;28;20026;-76
2022/03/11 09:19:51;;;;;;;8.07;3.85;;;;;;;;;;5017133;28;20426;-76
2022/03/11 09:22:17;;;;;;;4.28;2.42;;;;;;;;;;5016142;28;20034;-77
2022/03/11 09:24:44;;;;;;;4.07;2.45;;;;;;;;;;5017487;28;20479;-78
2022/03/11 09:27:11;;;;;;;8.85;3.40;;;;;;;;;;5017786;28;20498;-77
2022/03/11 09:29:36;;;;;;;8.70;3.75;;;;;;;;;;5017228;28;20025;-78
2022/03/11 09:32:03;;;;;;;7.22;3.15;;;;;;;;;;5016194;28;20026;-78
2022/03/11 09:34:29;;;;;;;6.22;3.05;;;;;;;;;;5016643;28;20052;-77
2022/03/11 09:36:54;;;;;;;5.78;3.28;;;;;;;;;;5017313;28;20036;-77
2022/03/11 09:39:20;;;;;;;5.45;3.13;;;;;;;;;;5015558;28;20093;-76
2022/03/11 09:41:47;;;;;;;7.95;3.22;;;;;;;;;;5017135;28;20032;-77
2022/03/11 09:44:16;;;;;;;7.60;3.65;;;;;;;;;;5015677;28;20049;-77
2022/03/11 09:46:42;;;;;;;8.25;3.70;;;;;;;;;;5016539;28;20022;-77
2022/03/11 09:49:08;;;;;;;4.88;2.50;;;;;;;;;;5015174;28;20029;-77
2022/03/11 09:51:35;;;;;;;6.43;2.95;;;;;;;;;;5015876;28;20036;-76
2022/03/11 09:54:01;;;;;;;8.57;3.95;;;;;;;;;;5016178;28;20105;-77
2022/03/11 09:56:26;;;;;;;10.82;3.88;;;;;;;;;;5017118;28;20028;-77
2022/03/11 09:58:53;;;;;;;5.20;2.50;;;;;;;;;;5016806;28;20026;-77
2022/03/11 10:01:18;;;;;;;5.82;3.00;;;;;;;;;;5015375;28;20475;-78
2022/03/11 10:03:43;;;;;;;6.57;3.25;;;;;;;;;;5016799;28;20056;-77
2022/03/11 10:06:09;;;;;;;13.38;3.72;;;;;;;;;;5014973;28;20502;-76
2022/03/11 10:08:37;;;;;;;6.75;3.05;;;;;;;;;;5015216;28;20377;-77
2022/03/11 10:11:26;;;;;;;5.25;2.67;;;;;;;;;;5016689;28;20034;-78
2022/03/11 10:14:03;;;;;;;8.23;3.50;;;;;;;;;;5017014;28;20363;-78
2022/03/11 10:16:30;;;;;;;5.97;2.95;;;;;;;;;;5016578;28;20022;-78
2022/03/11 10:19:03;;;;;;;8.65;3.95;;;;;;;;;;5014910;28;20486;-77
2022/03/11 10:21:39;;;;;;;8.07;3.65;;;;;;;;;;5016042;28;20155;-76
2022/03/11 10:24:07;;;;;;;5.43;3.47;;;;;;;;;;5016150;28;20030;-78
2022/03/11 10:26:41;;;;;;;7.50;3.95;;;;;;;;;;5016236;28;20030;-78
2022/03/11 10:29:09;;;;;;;3.90;2.17;;;;;;;;;;5016875;28;20371;-78
2022/03/11 10:31:39;;;;;;;4.55;2.53;;;;;;;;;;5016034;28;20026;-77
2022/03/11 10:34:23;;;;;;;6.15;3.58;;;;;;;;;;5016548;28;20029;-79
2022/03/11 10:36:52;;;;;;;6.13;3.33;;;;;;;;;;5016383;28;20053;-78
2022/03/11 10:39:20;;;;;;;7.35;3.67;;;;;;;;;;5017672;28;20036;-77
2022/03/11 10:41:46;;;;;;;6.40;3.53;;;;;;;;;;5016109;28;20483;-76
2022/03/11 10:44:12;;;;;;;3.78;2.22;;;;;;;;;;5015020;28;20030;-77
2022/03/11 10:46:38;;;;;;;9.60;4.22;;;;;;;;;;5015864;28;20026;-77
2022/03/11 10:49:04;;;;;;;5.32;2.67;;;;;;;;;;5015410;28;20026;-77
2022/03/11 10:51:33;;;;;;;7.70;4.10;;;;;;;;;;5015598;28;20091;-77
2022/03/11 10:54:10;;;;;;;8.90;3.65;;;;;;;;;;5014613;28;20056;-76
2022/03/11 10:56:43;;;;;;;5.13;3.20;;;;;;;;;;5016332;28;20391;-76
2022/03/11 10:59:20;;;;;;;6.03;3.67;;;;;;;;;;5015399;28;20026;-77
2022/03/11 11:01:45;;;;;;;11.02;3.55;;;;;;;;;;5015592;28;20029;-77
2022/03/11 11:04:15;;;;;;;5.97;3.10;;;;;;;;;;5015981;28;20053;-77
2022/03/11 11:06:41;;;;;;;8.45;3.17;;;;;;;;;;5015410;28;20030;-77
2022/03/11 11:09:08;;;;;;;9.07;3.45;;;;;;;;;;5015864;28;20087;-77
2022/03/11 11:11:34;;;;;;;7.13;3.15;;;;;;;;;;5015554;28;20033;-77
2022/03/11 11:14:00;;;;;;;7.57;3.53;;;;;;;;;;5013766;28;20049;-77
2022/03/11 11:16:28;;;;;;;7.55;3.42;;;;;;;;;;5015594;28;20052;-77
2022/03/11 11:18:59;;;;;;;5.45;3.30;;;;;;;;;;5013347;28;20021;-77
2022/03/11 11:21:25;;;;;;;8.57;4.00;;;;;;;;;;5014964;28;20084;-77
2022/03/11 11:23:54;;;;;;;5.38;3.40;;;;;;;;;;5015773;28;20121;-77
2022/03/11 11:26:21;;;;;;;8.02;4.22;;;;;;;;;;5014959;28;20511;-77
2022/03/11 11:28:46;;;;;;;13.45;4.78;;;;;;;;;;5015202;28;20467;-77
2022/03/11 11:31:16;;;;;;;7.50;3.92;;;;;;;;;;5013840;28;20061;-77
2022/03/11 11:33:44;;;;;;;14.70;4.70;;;;;;;;;;5015394;28;20026;-77
2022/03/11 11:36:09;;;;;;;8.48;4.03;;;;;;;;;;5013943;28;20033;-78
2022/03/11 11:38:42;;;;;;;8.30;4.13;;;;;;;;;;5014606;28;20493;-77
2022/03/11 11:41:26;;;;;;;4.20;2.22;;;;;;;;;;5015008;28;20029;-77
2022/03/11 11:43:53;;;;;;;5.82;2.80;;;;;;;;;;5015090;28;20024;-77
2022/03/11 11:46:20;;;;;;;7.90;4.10;;;;;;;;;;5014577;28;20057;-77
2022/03/11 11:48:52;;;;;;;9.20;3.58;;;;;;;;;;5014524;28;20029;-77
2022/03/11 11:51:22;;;;;;;8.02;4.60;;;;;;;;;;5014081;28;20049;-76
2022/03/11 11:53:56;;;;;;;9.20;4.82;;;;;;;;;;5015034;28;20025;-77
2022/03/11 11:56:34;;;;;;;9.45;4.32;;;;;;;;;;5015571;28;20022;-77
2022/03/11 11:59:19;;;;;;;7.50;4.10;;;;;;;;;;5016864;28;20030;-77
2022/03/11 12:01:47;;;;;;;6.75;2.97;;;;;;;;;;5016003;28;20038;-76
2022/03/11 12:04:18;;;;;;;8.52;3.75;;;;;;;;;;5014250;28;20152;-76
2022/03/11 12:07:00;;;;;;;8.05;4.30;;;;;;;;;;5017986;28;20026;-77
2022/03/11 12:09:38;;;;;;;4.68;2.55;;;;;;;;;;5017076;28;20067;-77
2022/03/11 12:12:07;;;;;;;6.07;2.97;;;;;;;;;;5014687;28;20375;-76
2022/03/11 12:14:52;;;;;;;8.30;4.13;;;;;;;;;;5013994;28;20116;-76
2022/03/11 12:17:41;;;;;;;6.10;3.40;;;;;;;;;;5014069;28;20033;-76
2022/03/11 12:20:35;;;;;;;8.57;4.35;;;;;;;;;;5015339;28;20033;-76
2022/03/11 12:23:12;;;;;;;4.95;3.20;;;;;;;;;;5012955;28;20033;-76
2022/03/11 12:25:44;;;;;;;9.63;3.83;;;;;;;;;;5014486;28;20030;-76
2022/03/11 12:28:16;;;;;;;7.63;4.40;;;;;;;;;;5014787;28;20045;-77
2022/03/11 12:30:48;;;;;;;11.70;4.22;;;;;;;;;;5017164;28;20449;-76
2022/03/11 12:33:16;;;;;;;9.02;4.40;;;;;;;;;;5017867;28;20030;-76
2022/03/11 12:35:43;;;;;;;6.10;3.30;;;;;;;;;;5018881;28;20375;-76
2022/03/11 12:38:18;;;;;;;8.63;4.57;;;;;;;;;;5017977;28;20103;-77
2022/03/11 12:40:45;;;;;;;7.40;3.75;;;;;;;;;;5018064;28;20018;-76
2022/03/11 12:43:12;;;;;;;8.48;4.78;;;;;;;;;;5018380;28;20161;-78
2022/03/11 12:45:46;;;;;;;10.80;4.07;;;;;;;;;;5018030;28;20065;-77
2022/03/11 12:48:13;;;;;;;9.02;4.70;;;;;;;;;;5018094;28;20079;-76
2022/03/11 12:50:40;;;;;;;8.48;3.47;;;;;;;;;;5016648;28;20458;-77
2022/03/11 12:53:07;;;;;;;8.27;4.22;;;;;;;;;;5018210;28;20030;-77
2022/03/11 12:55:33;;;;;;;4.57;2.70;;;;;;;;;;5017466;28;20037;-77
2022/03/11 12:58:04;;;;;;;13.77;4.93;;;;;;;;;;5017558;28;20536;-78
2022/03/11 13:00:32;;;;;;;10.07;4.18;;;;;;;;;;5016287;28;20026;-77
2022/03/11 13:02:58;;;;;;;9.82;4.05;;;;;;;;;;5016437;28;20033;-77
2022/03/11 13:05:28;;;;;;;7.60;4.05;;;;;;;;;;5018275;28;20034;-77
2022/03/11 13:07:59;;;;;;;8.77;4.80;;;;;;;;;;5018733;28;20033;-77
2022/03/11 13:10:26;;;;;;;6.38;3.03;;;;;;;;;;5019041;28;20022;-77
2022/03/11 13:12:52;;;;;;;7.80;4.10;;;;;;;;;;5018229;28;20479;-77
2022/03/11 13:15:22;;;;;;;7.78;4.40;;;;;;;;;;5018517;28;20072;-77
2022/03/11 13:18:08;;;;;;;6.68;3.92;;;;;;;;;;5019045;28;20029;-77
2022/03/11 13:20:47;;;;;;;9.27;5.05;;;;;;;;;;5019407;28;20071;-77
2022/03/11 13:23:15;;;;;;;6.32;3.08;;;;;;;;;;5019085;28;20021;-77
2022/03/11 13:25:46;;;;;;;10.00;4.40;;;;;;;;;;5019114;28;20026;-77
2022/03/11 13:28:16;;;;;;;11.57;5.55;;;;;;;;;;5019588;28;20033;-78
2022/03/11 13:30:41;;;;;;;7.75;4.57;;;;;;;;;;5017684;28;20029;-77
2022/03/11 13:33:13;;;;;;;10.25;5.07;;;;;;;;;;5017918;28;20029;-77
2022/03/11 13:35:39;;;;;;;9.23;4.68;;;;;;;;;;5018073;28;20482;-77
2022/03/11 13:38:05;;;;;;;9.30;5.20;;;;;;;;;;5017783;28;20033;-77
2022/03/11 13:40:30;;;;;;;12.88;5.57;;;;;;;;;;5016764;28;20438;-77
2022/03/11 13:42:58;;;;;;;10.63;5.07;;;;;;;;;;5018275;28;20057;-77
2022/03/11 13:45:32;;;;;;;11.35;5.78;;;;;;;;;;5016266;28;20076;-77
2022/03/11 13:48:03;;;;;;;9.10;4.70;;;;;;;;;;5017458;28;20025;-77
2022/03/11 13:50:29;;;;;;;12.15;5.47;;;;;;;;;;5018041;28;20443;-77
2022/03/11 13:52:57;;;;;;;8.32;4.35;;;;;;;;;;5018151;28;20061;-76
2022/03/11 13:55:32;;;;;;;10.13;5.05;;;;;;;;;;5017051;28;20048;-77
2022/03/11 13:58:25;;;;;;;11.50;5.13;;;;;;;;;;5015405;28;20018;-76
2022/03/11 14:00:50;;;;;;;11.10;5.00;;;;;;;;;;5015518;28;20444;-76
2022/03/11 14:03:19;;;;;;;12.23;5.07;;;;;;;;;;5017356;28;20030;-76
2022/03/11 14:05:46;;;;;;;8.30;4.57;;;;;;;;;;5015354;28;20385;-76
2022/03/11 14:08:17;;;;;;;8.13;4.13;;;;;;;;;;5015496;28;20040;-77
2022/03/11 14:10:45;;;;;;;8.82;4.85;;;;;;;;;;5016552;28;20101;-77
2022/03/11 14:13:14;;;;;;;6.53;3.53;;;;;;;;;;5015711;28;20018;-78
2022/03/11 14:15:44;;;;;;;5.57;3.63;;;;;;;;;;5016511;28;20474;-77
2022/03/11 14:18:13;;;;;;;13.23;5.03;;;;;;;;;;5014758;28;20394;-77
2022/03/11 14:20:40;;;;;;;8.32;4.63;;;;;;;;;;5015622;28;20045;-77
2022/03/11 14:23:05;;;;;;;6.93;3.70;;;;;;;;;;5016773;28;20045;-78
2022/03/11 14:25:32;;;;;;;9.27;4.15;;;;;;;;;;5017042;28;20026;-77
2022/03/11 14:27:57;;;;;;;9.82;3.92;;;;;;;;;;5016220;28;20461;-76
2022/03/11 14:30:22;;;;;;;6.15;3.58;;;;;;;;;;5015765;28;20100;-76
2022/03/11 14:32:49;;;;;;;7.45;4.05;;;;;;;;;;5016620;28;20030;-77
2022/03/11 14:35:15;;;;;;;7.22;4.38;;;;;;;;;;5016000;28;20030;-77
2022/03/11 14:37:40;;;;;;;9.15;4.93;;;;;;;;;;5017177;28;20021;-78
2022/03/11 14:40:06;;;;;;;6.07;3.70;;;;;;;;;;5018410;28;20100;-77